Time;durP1;ratioP1;P1;durP2;ratioP2;P2;SDS_P1;SDS_P2;PMS_P1;PMS_P2;Temp;Humidity;BMP_temperature;BMP_pressure;BME280_temperature;BME280_humidity;BME280_pressure;Samples;Min_cycle;Max_cycle;Signal;HPM_P1;HPM_P2
2021/07/21 00:01:08;;;;;;;14.07;11.80;;;;;;;26.75;68.08;99006.53;1800927;79;21073;-64
2021/07/21 00:03:34;;;;;;;13.70;12.30;;;;;;;26.74;68.09;99002.20;1792407;79;21073;-65
2021/07/21 00:06:01;;;;;;;13.45;12.05;;;;;;;26.73;68.12;99000.56;1793701;79;21038;-65
2021/07/21 00:08:27;;;;;;;14.75;11.97;;;;;;;26.71;68.15;98995.16;1796552;79;21045;-65
2021/07/21 00:13:27;;;;;;;12.60;11.28;;;;;;;26.70;68.20;98986.75;1773892;79;22380;-64
2021/07/21 00:13:30;;;;;;;17.65;12.78;;;;;;;26.68;68.27;98991.92;1790361;79;21022;-64
2021/07/21 00:18:34;;;;;;;13.65;12.25;;;;;;;26.69;68.28;98985.91;1769967;79;21019;-64
2021/07/21 00:20:58;;;;;;;14.43;13.00;;;;;;;26.74;68.11;98982.33;1749119;80;21068;-64
2021/07/21 00:23:25;;;;;;;14.87;12.70;;;;;;;26.73;68.12;98986.94;1821127;77;21140;-64
2021/07/21 00:25:51;;;;;;;14.47;12.40;;;;;;;26.71;68.18;98980.98;1830117;77;21046;-64
2021/07/21 00:28:18;;;;;;;13.20;11.57;;;;;;;26.70;68.21;98982.66;1822936;77;20990;-65
2021/07/21 00:30:47;;;;;;;13.45;12.05;;;;;;;26.68;68.25;98983.75;1834829;77;21002;-64
2021/07/21 00:35:54;;;;;;;13.20;11.90;;;;;;;26.70;68.30;98993.00;1863404;75;22685;-64
2021/07/21 00:38:20;;;;;;;14.30;12.88;;;;;;;26.64;68.38;98998.26;1836095;76;20985;-66
2021/07/21 00:40:48;;;;;;;14.20;12.58;;;;;;;26.62;68.37;98989.02;1853310;76;21059;-64
2021/07/21 00:43:14;;;;;;;17.30;13.55;;;;;;;26.63;68.38;98991.98;1852071;76;21496;-64
2021/07/21 00:45:42;;;;;;;15.88;13.65;;;;;;;26.62;68.38;98989.57;1831836;77;20937;-65
2021/07/21 00:48:08;;;;;;;14.58;13.08;;;;;;;26.61;68.39;98989.30;1825789;76;21040;-64
2021/07/21 00:50:39;;;;;;;15.58;13.15;;;;;;;26.60;68.37;98985.77;1831164;76;21020;-64
2021/07/21 00:53:07;;;;;;;15.23;13.15;;;;;;;26.58;68.42;98986.58;1839166;76;21509;-64
2021/07/21 00:55:34;;;;;;;18.37;14.85;;;;;;;26.61;68.40;98986.57;1836896;77;21009;-65
2021/07/21 00:58:03;;;;;;;17.55;14.70;;;;;;;26.66;68.17;98979.70;1841329;77;20957;-66
2021/07/21 01:00:30;;;;;;;15.32;13.72;;;;;;;26.65;68.12;98977.52;1843843;77;21111;-65
2021/07/21 01:02:57;;;;;;;16.30;14.58;;;;;;;26.64;68.10;98976.47;1849933;77;21053;-65
2021/07/21 01:05:30;;;;;;;18.75;14.23;;;;;;;26.63;68.16;98966.66;1829051;76;21537;-64
2021/07/21 01:08:00;;;;;;;16.20;14.70;;;;;;;26.61;68.19;98960.70;1844912;77;21469;-64
2021/07/21 01:10:27;;;;;;;17.20;14.55;;;;;;;26.59;68.24;98959.63;1793733;78;21567;-65
2021/07/21 01:13:21;;;;;;;15.85;14.23;;;;;;;26.58;68.31;98965.33;1768878;79;21037;-64
2021/07/21 01:15:57;;;;;;;18.92;15.03;;;;;;;26.57;68.30;98966.45;1769861;79;21040;-64
2021/07/21 01:18:28;;;;;;;16.25;14.65;;;;;;;26.55;68.39;98965.93;1767446;79;21578;-64
2021/07/21 01:21:36;;;;;;;15.85;13.98;;;;;;;26.53;68.45;98966.77;1786590;79;21009;-63
2021/07/21 01:24:27;;;;;;;15.38;13.88;;;;;;;26.51;68.53;98964.34;1777323;78;21016;-65
2021/07/21 01:27:29;;;;;;;17.15;15.05;;;;;;;26.52;68.50;98961.89;1799182;78;21009;-65
2021/07/21 01:30:03;;;;;;;18.32;14.40;;;;;;;26.55;68.43;98961.28;1819156;78;21006;-65
2021/07/21 01:32:31;;;;;;;16.75;14.40;;;;;;;26.52;68.52;98966.50;1813271;78;21122;-64
2021/07/21 01:35:04;;;;;;;15.95;14.40;;;;;;;26.50;68.58;98965.42;1803048;78;21084;-64
2021/07/21 01:37:32;;;;;;;17.80;15.28;;;;;;;26.49;68.61;98962.45;1803330;78;21010;-64
2021/07/21 01:40:04;;;;;;;17.45;15.65;;;;;;;26.47;68.63;98961.38;1805940;78;21871;-65
2021/07/21 01:42:32;;;;;;;16.47;14.93;;;;;;;26.47;68.69;98964.66;1762011;80;21039;-66
2021/07/21 01:44:59;;;;;;;18.77;15.65;;;;;;;26.45;68.67;98964.95;1777906;78;21096;-64
2021/07/21 01:47:27;;;;;;;15.72;14.15;;;;;;;26.44;68.61;98967.43;1799427;78;20993;-65
2021/07/21 01:49:54;;;;;;;15.28;13.78;;;;;;;26.44;68.53;98960.62;1820606;78;21049;-64
2021/07/21 01:52:27;;;;;;;18.12;14.87;;;;;;;26.43;68.40;98956.27;1795908;79;21065;-64
2021/07/21 01:54:56;;;;;;;16.63;13.70;;;;;;;26.47;68.30;98964.66;1778731;79;21041;-65
2021/07/21 01:57:26;;;;;;;15.75;14.25;;;;;;;26.53;68.00;98966.77;1776249;79;21131;-64
2021/07/21 02:00:14;;;;;;;15.50;13.85;;;;;;;26.53;67.88;98964.05;1757185;79;21048;-65
2021/07/21 02:02:47;;;;;;;17.05;15.32;;;;;;;26.49;67.79;98951.00;1773518;79;22071;-65
2021/07/21 02:05:15;;;;;;;18.05;16.17;;;;;;;26.49;67.72;98953.73;1749647;79;21627;-64
2021/07/21 02:07:45;;;;;;;17.37;15.63;;;;;;;26.48;67.69;98954.02;1731006;79;21064;-64
2021/07/21 02:10:25;;;;;;;16.37;14.75;;;;;;;26.47;67.62;98960.02;1769218;80;21796;-66
2021/07/21 02:13:06;;;;;;;16.12;14.47;;;;;;;26.46;67.57;98962.50;1779504;78;21540;-65
2021/07/21 02:15:34;;;;;;;18.32;15.13;;;;;;;26.46;67.53;98960.30;1743668;80;21520;-65
2021/07/21 02:18:02;;;;;;;16.50;14.80;;;;;;;26.43;67.52;98964.44;1772646;79;22004;-64
2021/07/21 02:20:31;;;;;;;16.57;14.95;;;;;;;26.42;67.40;98966.08;1774476;79;21031;-65
2021/07/21 02:23:01;;;;;;;16.40;14.90;;;;;;;26.35;67.41;98951.48;1771202;79;21134;-65
2021/07/21 02:25:36;;;;;;;17.82;13.78;;;;;;;26.40;67.38;98960.92;1759214;80;21007;-66
2021/07/21 02:28:02;;;;;;;17.25;15.58;;;;;;;26.39;67.38;98954.43;1759881;79;21131;-65
2021/07/21 02:30:31;;;;;;;16.80;15.08;;;;;;;26.38;67.31;98959.05;1777980;79;21342;-64
2021/07/21 02:33:21;;;;;;;16.37;14.73;;;;;;;26.38;67.22;98965.05;1776924;79;21080;-64
2021/07/21 02:35:48;;;;;;;17.10;15.32;;;;;;;26.36;67.05;98965.33;1778957;79;21186;-66
2021/07/21 02:38:16;;;;;;;15.90;14.20;;;;;;;26.35;67.00;98971.06;1771917;79;21132;-64
2021/07/21 02:40:50;;;;;;;15.85;14.25;;;;;;;26.37;66.93;98971.61;1775457;79;21659;-64
2021/07/21 02:43:21;;;;;;;16.65;15.05;;;;;;;26.42;66.69;98970.97;1780006;79;21505;-65
2021/07/21 02:45:49;;;;;;;17.52;15.72;;;;;;;26.41;66.62;98976.17;1774480;79;21099;-64
2021/07/21 02:48:15;;;;;;;16.67;14.95;;;;;;;26.41;66.58;98976.73;1777733;79;21158;-65
2021/07/21 02:50:47;;;;;;;16.65;14.95;;;;;;;26.40;66.51;98977.26;1801522;78;21065;-64
2021/07/21 02:53:22;;;;;;;17.87;16.07;;;;;;;26.39;66.36;98981.10;1796757;78;21045;-63
2021/07/21 02:56:09;;;;;;;16.55;15.05;;;;;;;26.39;66.27;98986.55;1761800;78;21053;-66
2021/07/21 02:59:01;;;;;;;17.63;15.73;;;;;;;26.37;66.26;98981.14;1767683;79;21198;-64
2021/07/21 03:01:27;;;;;;;15.90;14.33;;;;;;;26.36;66.25;98987.11;1768829;79;21824;-67
2021/07/21 03:03:54;;;;;;;16.60;14.93;;;;;;;26.34;66.33;98990.68;1769702;79;21116;-65
2021/07/21 03:06:24;;;;;;;17.25;15.63;;;;;;;26.32;66.47;98991.52;1764168;79;21559;-64
2021/07/21 03:09:06;;;;;;;18.42;16.50;;;;;;;26.31;66.48;98996.72;1783658;79;21107;-67
2021/07/21 03:11:34;;;;;;;18.05;16.27;;;;;;;26.29;66.46;98994.84;1773995;79;21053;-64
2021/07/21 03:14:01;;;;;;;18.77;17.07;;;;;;;26.28;66.41;98997.30;1782707;79;21118;-65
2021/07/21 03:16:32;;;;;;;17.57;15.88;;;;;;;26.27;66.48;98997.85;1765585;79;21086;-64
2021/07/21 03:19:01;;;;;;;19.67;16.62;;;;;;;26.27;66.43;98999.77;1780575;79;21146;-64
2021/07/21 03:21:29;;;;;;;16.97;15.28;;;;;;;26.26;66.50;98998.13;1785631;79;21077;-66
2021/07/21 03:24:00;;;;;;;19.27;17.35;;;;;;;26.25;66.50;99006.02;1795069;79;21036;-64
2021/07/21 03:26:45;;;;;;;18.40;16.02;;;;;;;26.24;66.51;99001.70;1777985;79;21089;-65
2021/07/21 03:29:13;;;;;;;17.87;16.00;;;;;;;26.22;66.52;99008.78;1772229;79;21080;-65
2021/07/21 03:31:43;;;;;;;17.25;15.25;;;;;;;26.21;66.60;99010.43;1752107;80;21065;-65
2021/07/21 03:34:12;;;;;;;16.90;15.30;;;;;;;26.20;66.60;99016.44;1775436;79;21486;-64
2021/07/21 03:36:54;;;;;;;16.35;14.63;;;;;;;26.27;66.44;99019.63;1778381;79;21568;-65
2021/07/21 03:39:23;;;;;;;16.45;14.78;;;;;;;26.28;66.38;99019.88;1778927;79;21128;-66
2021/07/21 03:42:08;;;;;;;16.48;14.87;;;;;;;26.28;66.42;99032.13;1771751;79;21071;-65
2021/07/21 03:44:36;;;;;;;16.05;14.45;;;;;;;26.26;66.44;99034.89;1766104;79;21027;-65
2021/07/21 03:47:04;;;;;;;16.07;14.58;;;;;;;26.25;66.49;99040.89;1801324;78;21629;-65
2021/07/21 03:49:32;;;;;;;16.70;14.93;;;;;;;26.24;66.51;99035.72;1768828;79;21109;-66
2021/07/21 03:52:05;;;;;;;15.55;14.05;;;;;;;26.24;66.59;99039.81;1763217;79;21143;-65
2021/07/21 03:54:38;;;;;;;15.68;14.18;;;;;;;26.22;66.61;99036.56;1757822;80;21054;-66
2021/07/21 03:57:25;;;;;;;14.90;13.43;;;;;;;26.22;66.57;99043.38;1766194;79;22082;-65
2021/07/21 03:59:53;;;;;;;15.53;13.93;;;;;;;26.21;66.58;99043.09;1773680;80;21069;-65
2021/07/21 04:02:20;;;;;;;15.05;13.48;;;;;;;26.20;66.60;99037.41;1754018;80;21061;-65
2021/07/21 04:04:47;;;;;;;16.10;14.60;;;;;;;26.19;66.63;99048.02;1775807;79;21095;-65
2021/07/21 04:07:16;;;;;;;16.23;13.28;;;;;;;26.18;66.67;99045.05;1759197;80;21100;-64
2021/07/21 04:09:51;;;;;;;15.10;13.60;;;;;;;26.18;66.63;99047.77;1778606;79;21066;-64
2021/07/21 04:12:20;;;;;;;15.90;14.38;;;;;;;26.16;66.59;99049.97;1760560;79;21050;-64
2021/07/21 04:14:52;;;;;;;16.02;14.43;;;;;;;26.15;66.65;99048.34;1758370;79;21009;-64
2021/07/21 04:17:20;;;;;;;16.70;14.60;;;;;;;26.15;66.63;99048.34;1754527;80;22093;-63
2021/07/21 04:19:47;;;;;;;16.55;14.85;;;;;;;26.14;66.62;99045.37;1769384;79;21041;-64
2021/07/21 04:22:13;;;;;;;16.55;14.73;;;;;;;26.11;66.50;99043.21;1766634;80;21068;-64
2021/07/21 04:24:45;;;;;;;16.35;14.00;;;;;;;26.12;66.42;99040.20;1778957;79;21525;-65
2021/07/21 04:27:12;;;;;;;17.10;14.35;;;;;;;26.11;66.39;99039.13;1743489;80;21008;-65
2021/07/21 04:29:41;;;;;;;17.12;15.43;;;;;;;26.09;66.34;99042.94;1740943;79;22151;-66
2021/07/21 04:32:09;;;;;;;17.37;15.58;;;;;;;26.09;66.22;99042.13;1777275;80;21013;-64
2021/07/21 04:34:37;;;;;;;17.45;15.38;;;;;;;26.05;66.15;99035.09;1766707;79;21013;-64
2021/07/21 04:37:04;;;;;;;17.98;16.17;;;;;;;26.07;66.13;99038.33;1772242;79;21001;-65
2021/07/21 04:39:32;;;;;;;17.80;14.68;;;;;;;26.05;66.06;99041.89;1769468;79;21044;-64
2021/07/21 04:42:11;;;;;;;17.62;15.80;;;;;;;26.06;65.93;99041.36;1733308;79;21200;-65
2021/07/21 04:44:40;;;;;;;16.40;14.80;;;;;;;26.05;65.85;99048.70;1766881;79;21030;-65
2021/07/21 04:47:07;;;;;;;16.40;14.70;;;;;;;26.04;65.79;99049.00;1777677;79;21088;-64
2021/07/21 04:49:41;;;;;;;16.67;14.87;;;;;;;26.03;65.63;99061.78;1777216;78;21670;-65
2021/07/21 04:52:08;;;;;;;15.60;14.00;;;;;;;26.02;65.64;99050.65;1783902;80;21505;-67
2021/07/21 04:54:36;;;;;;;16.05;14.50;;;;;;;26.00;65.55;99050.13;1769026;79;21517;-65
2021/07/21 04:57:04;;;;;;;17.10;14.53;;;;;;;26.00;65.49;99050.65;1766285;78;21050;-65
2021/07/21 04:59:35;;;;;;;15.95;14.35;;;;;;;26.00;65.57;99052.02;1785044;79;28252;-65
2021/07/21 05:02:04;;;;;;;14.78;13.28;;;;;;;25.99;65.47;99049.05;1773306;78;21051;-64
2021/07/21 05:04:31;;;;;;;15.43;13.93;;;;;;;25.97;65.53;99054.77;1797250;78;21036;-64
2021/07/21 05:07:18;;;;;;;14.68;13.18;;;;;;;25.97;65.38;99050.69;1804084;78;21306;-65
2021/07/21 05:09:46;;;;;;;15.00;13.50;;;;;;;25.96;65.32;99051.80;1811061;78;21068;-65
2021/07/21 05:12:13;;;;;;;13.65;12.35;;;;;;;25.95;65.28;99053.44;1808774;78;21084;-64
2021/07/21 05:14:42;;;;;;;13.83;12.40;;;;;;;25.95;65.13;99056.97;1805405;78;21050;-64
2021/07/21 05:17:10;;;;;;;12.90;11.70;;;;;;;25.95;65.09;99058.88;1776513;78;21071;-65
2021/07/21 05:19:37;;;;;;;13.43;12.07;;;;;;;25.94;65.09;99052.64;1792482;78;21118;-64
2021/07/21 05:22:04;;;;;;;13.50;12.10;;;;;;;25.95;65.02;99056.16;1802827;78;21029;-64
2021/07/21 05:24:31;;;;;;;13.08;11.78;;;;;;;25.94;64.79;99057.25;1751098;80;21120;-64
2021/07/21 05:26:57;;;;;;;13.00;11.28;;;;;;;25.95;64.70;99064.33;1765707;79;21601;-64
2021/07/21 05:29:26;;;;;;;16.95;11.12;;;;;;;25.95;64.64;99062.41;1776144;78;21104;-65
2021/07/21 05:32:04;;;;;;;11.88;10.72;;;;;;;25.95;64.40;99058.33;1771506;78;21149;-64
2021/07/21 05:34:34;;;;;;;13.30;11.35;;;;;;;25.96;64.25;99062.69;1803085;78;21038;-66
2021/07/21 05:37:11;;;;;;;12.10;11.00;;;;;;;25.96;64.16;99062.69;1781796;80;21057;-65
2021/07/21 05:39:42;;;;;;;11.65;10.45;;;;;;;25.95;64.02;99048.80;1764585;80;21012;-65
2021/07/21 05:42:08;;;;;;;10.00;9.00;;;;;;;25.96;64.14;99045.52;1796889;78;21043;-65
2021/07/21 05:44:35;;;;;;;11.48;10.20;;;;;;;25.96;63.96;99045.52;1782677;79;21139;-65
2021/07/21 05:47:04;;;;;;;10.43;9.43;;;;;;;25.97;63.87;99043.88;1792380;78;21559;-65
2021/07/21 05:49:30;;;;;;;15.38;9.85;;;;;;;25.98;63.72;99037.36;1817096;78;21116;-64
2021/07/21 05:52:06;;;;;;;11.33;9.80;;;;;;;26.00;63.84;99039.23;1782187;78;21046;-65
2021/07/21 05:54:37;;;;;;;12.13;9.38;;;;;;;26.00;63.54;99032.44;1799932;78;21053;-63
2021/07/21 05:57:06;;;;;;;10.28;9.28;;;;;;;26.02;63.43;99034.84;1811348;78;22349;-65
2021/07/21 05:59:35;;;;;;;14.77;10.23;;;;;;;26.03;63.41;99035.92;1809923;78;21036;-65
2021/07/21 06:02:02;;;;;;;10.68;8.58;;;;;;;26.04;63.45;99036.20;1768363;78;21088;-64
2021/07/21 06:04:30;;;;;;;10.82;8.75;;;;;;;26.05;63.08;99033.73;1773476;80;21096;-64
2021/07/21 06:07:15;;;;;;;11.83;8.83;;;;;;;26.05;63.07;99033.73;1769290;80;21052;-64
2021/07/21 06:09:53;;;;;;;10.40;8.55;;;;;;;26.07;62.88;99032.09;1730342;81;21146;-64
2021/07/21 06:12:21;;;;;;;8.95;8.05;;;;;;;26.08;62.62;99044.05;1777630;79;21037;-63
2021/07/21 06:14:48;;;;;;;10.08;8.60;;;;;;;26.08;62.17;99041.33;1771782;79;21032;-64
2021/07/21 06:17:15;;;;;;;9.63;8.68;;;;;;;26.09;62.16;99044.85;1780770;79;21077;-64
2021/07/21 06:19:45;;;;;;;12.73;7.03;;;;;;;26.11;62.14;99050.02;1750020;80;21038;-64
2021/07/21 06:22:13;;;;;;;11.35;8.70;;;;;;;26.13;61.79;99051.34;1768163;79;21154;-64
2021/07/21 06:24:56;;;;;;;9.68;8.45;;;;;;;26.14;61.68;99051.62;1768188;79;21049;-64
2021/07/21 06:27:31;;;;;;;9.38;7.72;;;;;;;26.14;61.71;99037.20;1774654;79;21104;-65
2021/07/21 06:29:59;;;;;;;10.32;7.83;;;;;;;26.16;61.51;99053.50;1765543;79;21446;-63
2021/07/21 06:32:26;;;;;;;7.47;6.60;;;;;;;26.17;61.13;99048.30;1774053;79;21071;-65
2021/07/21 06:34:53;;;;;;;6.45;5.83;;;;;;;26.15;61.23;99053.22;1785695;78;21821;-65
2021/07/21 06:37:22;;;;;;;8.68;6.53;;;;;;;26.16;62.31;99055.42;1779601;79;21059;-64
2021/07/21 06:39:50;;;;;;;7.42;6.30;;;;;;;26.19;62.27;99047.49;1745672;79;21194;-64
2021/07/21 06:42:17;;;;;;;10.85;7.10;;;;;;;26.23;62.47;99052.62;1784518;79;21032;-64
2021/07/21 06:44:45;;;;;;;10.53;7.40;;;;;;;26.29;62.20;99053.38;1761209;79;21496;-63
2021/07/21 06:47:20;;;;;;;7.53;6.83;;;;;;;26.35;61.83;99047.30;1777877;79;22023;-65
2021/07/21 06:49:49;;;;;;;8.78;7.90;;;;;;;26.39;61.45;99049.17;1783708;79;21092;-66
2021/07/21 06:52:21;;;;;;;9.38;7.05;;;;;;;26.43;61.08;99043.41;1777802;79;21036;-65
2021/07/21 06:54:49;;;;;;;12.47;8.43;;;;;;;26.48;61.23;99039.80;1775114;79;21095;-66
2021/07/21 06:57:20;;;;;;;14.47;8.85;;;;;;;26.52;61.62;99046.84;1772757;79;21082;-65
2021/07/21 06:59:46;;;;;;;10.45;8.83;;;;;;;26.56;61.44;99053.33;1776144;79;21175;-65
2021/07/21 07:02:31;;;;;;;12.43;8.83;;;;;;;26.58;61.63;99046.50;1768999;79;21611;-65
2021/07/21 07:05:14;;;;;;;9.58;7.58;;;;;;;26.61;61.65;99052.75;1689859;83;21092;-66
2021/07/21 07:07:52;;;;;;;10.20;7.87;;;;;;;26.64;61.81;99050.02;1670225;84;21105;-66
2021/07/21 07:10:21;;;;;;;11.45;8.60;;;;;;;26.66;61.50;99045.08;1772530;79;21123;-66
2021/07/21 07:12:47;;;;;;;13.18;8.78;;;;;;;26.72;61.27;99052.64;1767779;80;22439;-67
2021/07/21 07:15:15;;;;;;;11.05;8.13;;;;;;;26.76;61.26;99048.23;1765125;79;22327;-64
2021/07/21 07:17:42;;;;;;;10.72;7.62;;;;;;;26.79;61.13;99054.44;1773909;79;21048;-65
2021/07/21 07:20:11;;;;;;;9.85;7.97;;;;;;;26.82;60.57;99056.03;1771992;79;21050;-66
2021/07/21 07:22:37;;;;;;;11.53;8.43;;;;;;;26.85;60.24;99060.11;1766360;79;21081;-65
2021/07/21 07:25:06;;;;;;;267.45;76.75;;;;;;;26.86;60.18;99063.87;1775451;79;21131;-66
2021/07/21 07:27:32;;;;;;;14.60;9.08;;;;;;;26.52;100.00;99073.55;1774483;80;21136;-66
2021/07/21 07:29:59;;;;;;;11.03;8.50;;;;;;;26.75;97.79;99067.83;1763022;80;21150;-65
2021/07/21 07:32:25;;;;;;;9.63;7.42;;;;;;;26.79;79.73;99055.80;1766845;79;21646;-66
2021/07/21 07:34:52;;;;;;;8.85;7.22;;;;;;;26.77;70.46;99060.20;1787284;78;21045;-65
2021/07/21 07:37:18;;;;;;;8.23;7.33;;;;;;;26.75;68.11;99062.38;1768075;80;21097;-65
2021/07/21 07:39:44;;;;;;;11.33;7.58;;;;;;;26.75;66.36;99074.64;1805571;78;21008;-66
2021/07/21 07:42:11;;;;;;;11.73;8.28;;;;;;;26.76;65.34;99064.02;1766855;78;21550;-66
2021/07/21 07:44:37;;;;;;;10.15;8.10;;;;;;;26.80;64.61;99071.06;1760236;80;21104;-65
2021/07/21 07:47:04;;;;;;;9.03;7.45;;;;;;;26.84;64.20;99071.53;1802193;78;21018;-64
2021/07/21 07:49:31;;;;;;;15.08;7.90;;;;;;;26.88;63.65;99062.23;1769017;80;21953;-65
2021/07/21 07:51:57;;;;;;;9.15;7.42;;;;;;;26.92;63.05;99064.63;1780455;79;21052;-67
2021/07/21 07:54:24;;;;;;;10.65;7.17;;;;;;;26.95;62.10;99059.96;1768608;79;21022;-67
2021/07/21 07:56:51;;;;;;;8.98;7.40;;;;;;;27.00;61.59;99067.25;1773217;79;21015;-67
2021/07/21 07:59:18;;;;;;;9.53;7.92;;;;;;;27.05;61.34;99065.83;1785247;79;21056;-66
2021/07/21 08:01:44;;;;;;;8.75;7.78;;;;;;;27.09;61.00;99062.77;1782140;79;22653;-67
2021/07/21 08:04:11;;;;;;;7.97;7.03;;;;;;;27.13;60.53;99067.08;1776967;80;21036;-65
2021/07/21 08:06:37;;;;;;;8.88;6.90;;;;;;;27.17;60.07;99066.75;1782430;78;21021;-66
2021/07/21 08:09:04;;;;;;;8.90;7.50;;;;;;;27.20;59.98;99064.25;1799654;78;21667;-67
2021/07/21 08:11:30;;;;;;;9.68;7.30;;;;;;;27.23;59.94;99056.02;1805289;78;21034;-65
2021/07/21 08:13:57;;;;;;;7.47;6.58;;;;;;;27.29;59.72;99057.59;1799042;78;21450;-64
2021/07/21 08:16:24;;;;;;;10.10;6.95;;;;;;;27.32;59.25;99064.39;1782026;78;21013;-64
2021/07/21 08:18:50;;;;;;;7.37;6.50;;;;;;;27.35;59.05;99061.89;1784209;78;21044;-64
2021/07/21 08:21:17;;;;;;;7.50;6.55;;;;;;;27.39;58.93;99070.27;1803328;78;21540;-66
2021/07/21 08:23:44;;;;;;;8.35;7.00;;;;;;;27.41;58.57;99073.50;1799283;78;21112;-65
2021/07/21 08:26:11;;;;;;;8.13;7.25;;;;;;;27.44;58.50;99077.02;1770090;78;21849;-66
2021/07/21 08:28:38;;;;;;;8.38;6.75;;;;;;;27.46;58.50;99081.63;1776429;78;21626;-65
2021/07/21 08:31:05;;;;;;;10.85;7.60;;;;;;;27.49;58.45;99067.94;1803095;78;21545;-68
2021/07/21 08:33:31;;;;;;;8.25;7.40;;;;;;;27.52;58.54;99078.27;1803996;78;21053;-66
2021/07/21 08:35:58;;;;;;;8.58;6.95;;;;;;;27.54;58.68;99081.50;1798381;78;21044;-65
2021/07/21 08:38:24;;;;;;;8.85;7.22;;;;;;;27.59;58.64;99089.06;1773708;79;21053;-65
2021/07/21 08:40:50;;;;;;;9.35;7.70;;;;;;;27.61;58.53;99089.57;1770646;79;21520;-65
2021/07/21 08:43:17;;;;;;;7.28;6.60;;;;;;;27.64;58.79;99085.43;1775878;79;21097;-65
2021/07/21 08:45:43;;;;;;;9.13;6.62;;;;;;;27.70;58.89;99087.52;1767740;79;21104;-64
2021/07/21 08:48:11;;;;;;;9.05;7.40;;;;;;;27.74;58.67;99088.55;1791135;79;21118;-68
2021/07/21 08:50:38;;;;;;;10.03;6.67;;;;;;;27.77;58.74;99070.23;1740440;79;21875;-66
2021/07/21 08:53:04;;;;;;;9.90;7.20;;;;;;;27.81;58.87;99083.53;1757057;80;21017;-67
2021/07/21 08:55:30;;;;;;;8.85;6.60;;;;;;;27.85;58.54;99081.81;1769892;78;21067;-66
2021/07/21 08:57:56;;;;;;;9.55;6.60;;;;;;;27.87;58.14;99082.89;1768583;79;21053;-66
2021/07/21 09:00:23;;;;;;;10.32;7.10;;;;;;;27.91;57.80;99088.03;1790970;78;21049;-69
2021/07/21 09:02:49;;;;;;;7.60;6.53;;;;;;;27.92;57.66;99089.67;1798584;78;21529;-65
2021/07/21 09:05:17;;;;;;;7.53;6.20;;;;;;;27.94;57.60;99089.61;1779380;78;21086;-64
2021/07/21 09:07:44;;;;;;;7.10;6.05;;;;;;;27.96;57.46;99090.12;1773839;78;21120;-65
2021/07/21 09:10:13;;;;;;;8.18;6.50;;;;;;;27.98;57.11;99085.73;1775697;78;21374;-66
2021/07/21 09:12:42;;;;;;;15.45;7.40;;;;;;;28.01;57.10;99085.95;1770764;78;21019;-66
2021/07/21 09:15:11;;;;;;;9.60;6.95;;;;;;;28.03;57.41;99089.75;1772041;79;21100;-65
2021/07/21 09:17:37;;;;;;;9.65;6.42;;;;;;;28.04;57.44;99092.16;1746563;79;21060;-66
2021/07/21 09:20:06;;;;;;;7.28;6.58;;;;;;;28.08;57.42;99092.94;1747177;79;22365;-66
2021/07/21 09:22:37;;;;;;;7.80;7.00;;;;;;;28.09;57.68;99092.64;1748754;78;21136;-66
2021/07/21 09:25:18;;;;;;;9.38;6.90;;;;;;;28.12;57.73;99093.39;1783780;78;21009;-65
2021/07/21 09:27:47;;;;;;;6.97;6.37;;;;;;;28.15;57.69;99096.09;1764395;79;21068;-64
2021/07/21 09:30:25;;;;;;;8.23;7.40;;;;;;;28.17;57.67;99089.22;1772229;78;20996;-64
2021/07/21 09:33:08;;;;;;;11.10;7.75;;;;;;;28.20;57.38;99093.25;1766079;80;21094;-65
2021/07/21 09:35:46;;;;;;;8.95;8.03;;;;;;;28.23;57.55;99096.77;1771065;79;21018;-65
2021/07/21 09:38:21;;;;;;;7.90;7.10;;;;;;;28.27;57.40;99088.22;1783414;78;21130;-65
2021/07/21 09:40:52;;;;;;;8.48;6.72;;;;;;;28.30;57.39;99087.63;1782595;79;21160;-64
2021/07/21 09:43:23;;;;;;;8.20;7.40;;;;;;;28.34;57.01;99081.81;1776788;78;21032;-65
2021/07/21 09:45:49;;;;;;;7.55;6.80;;;;;;;28.37;56.85;99081.19;1769876;79;21068;-66
2021/07/21 09:48:18;;;;;;;9.30;6.60;;;;;;;28.42;56.20;99085.20;1762100;79;21079;-64
2021/07/21 09:50:47;;;;;;;9.68;6.55;;;;;;;28.43;55.73;99084.10;1770894;80;21120;-64
2021/07/21 09:53:15;;;;;;;7.10;6.03;;;;;;;28.44;55.51;99084.91;1760824;80;21125;-63
2021/07/21 09:55:44;;;;;;;8.98;6.28;;;;;;;28.44;55.27;99088.44;1779032;78;21576;-64
2021/07/21 09:58:18;;;;;;;7.87;6.87;;;;;;;28.43;55.38;99073.71;1765854;79;21537;-67
2021/07/21 10:00:47;;;;;;;7.72;6.45;;;;;;;28.43;55.38;99078.64;1775092;78;21577;-65
2021/07/21 10:03:18;;;;;;;7.50;6.37;;;;;;;28.43;55.03;99072.34;1771480;80;21118;-65
2021/07/21 10:06:03;;;;;;;8.93;6.22;;;;;;;28.40;54.72;99073.77;1761474;80;21131;-65
2021/07/21 10:08:44;;;;;;;9.33;6.78;;;;;;;28.40;54.95;99072.97;1797649;78;21061;-64
2021/07/21 10:11:29;;;;;;;8.25;6.65;;;;;;;28.41;54.96;99067.74;1794322;78;21050;-64
2021/07/21 10:14:04;;;;;;;7.72;6.00;;;;;;;28.42;54.82;99072.11;1766029;79;21140;-62
2021/07/21 10:16:44;;;;;;;8.88;6.30;;;;;;;28.42;54.16;99065.28;1774180;79;21084;-64
2021/07/21 10:19:27;;;;;;;7.17;6.08;;;;;;;28.40;54.44;99067.50;1778707;79;21096;-64
2021/07/21 10:22:02;;;;;;;7.30;6.60;;;;;;;28.39;54.46;99065.88;1763395;79;21025;-64
2021/07/21 10:24:33;;;;;;;8.15;6.17;;;;;;;28.36;54.50;99069.23;1758459;80;21053;-63
2021/07/21 10:27:00;;;;;;;6.70;6.10;;;;;;;28.35;54.27;99061.56;1763875;80;21041;-65
2021/07/21 10:29:26;;;;;;;7.97;7.17;;;;;;;28.35;53.76;99060.77;1760599;80;21628;-65
2021/07/21 10:31:53;;;;;;;8.55;6.83;;;;;;;28.33;53.33;99061.06;1769146;79;21055;-65
2021/07/21 10:34:21;;;;;;;9.20;6.65;;;;;;;28.34;53.02;99071.45;1769317;79;21067;-64
2021/07/21 10:36:47;;;;;;;7.28;6.12;;;;;;;28.33;52.30;99062.98;1780483;79;21077;-66
2021/07/21 10:39:33;;;;;;;7.08;6.37;;;;;;;28.31;52.59;99066.02;1772599;79;21103;-66
2021/07/21 10:42:04;;;;;;;8.75;6.95;;;;;;;28.32;52.45;99057.26;1770551;79;21580;-66
2021/07/21 10:44:31;;;;;;;9.03;6.67;;;;;;;28.35;52.62;99056.66;1769282;79;21130;-65
2021/07/21 10:46:59;;;;;;;6.45;5.85;;;;;;;28.39;52.52;99048.12;1770813;79;21017;-65
2021/07/21 10:49:34;;;;;;;7.30;6.58;;;;;;;28.44;52.58;99057.02;1772171;79;21006;-65
2021/07/21 11:00:09;;;;;;;6.17;5.55;;;;;;;28.61;52.95;99052.36;1733239;79;21026;-66
2021/07/21 11:02:35;;;;;;;6.75;5.40;;;;;;;28.64;52.41;99059.12;1776089;79;21085;-65
2021/07/21 11:05:01;;;;;;;8.85;6.10;;;;;;;28.63;51.79;99056.95;1765489;79;21004;-65
2021/07/21 11:07:51;;;;;;;6.65;6.05;;;;;;;28.63;51.70;99063.78;1761266;79;21118;-65
2021/07/21 11:10:39;;;;;;;6.97;5.10;;;;;;;28.61;52.07;99061.12;1764190;80;21285;-65
2021/07/21 11:13:12;;;;;;;5.53;5.03;;;;;;;28.60;52.00;99063.02;1768471;79;21093;-63
2021/07/21 11:15:46;;;;;;;5.83;4.67;;;;;;;28.57;51.99;99065.58;1768179;80;21147;-64
2021/07/21 11:18:40;;;;;;;6.67;4.60;;;;;;;28.55;51.85;99061.77;1762663;80;21128;-64
2021/07/21 11:21:13;;;;;;;5.67;5.15;;;;;;;28.54;51.60;99063.44;1779785;79;21556;-65
2021/07/21 11:23:58;;;;;;;6.33;5.35;;;;;;;28.54;52.27;99066.17;1766331;79;21270;-65
2021/07/21 11:26:41;;;;;;;12.75;11.55;;;;;;;28.56;52.40;99053.02;1774706;78;21336;-69
2021/07/21 11:29:33;;;;;;;15.38;13.88;;;;;;;28.61;51.65;99049.63;1783767;78;21041;-65
2021/07/21 11:32:02;;;;;;;19.98;18.10;;;;;;;28.63;50.81;99059.69;1766769;80;21316;-65
2021/07/21 11:34:32;;;;;;;19.62;17.73;;;;;;;28.64;50.66;99063.22;1761707;79;21496;-66
2021/07/21 11:37:11;;;;;;;28.00;25.20;;;;;;;28.62;50.61;99062.16;1790146;79;21126;-65
2021/07/21 11:39:54;;;;;;;16.30;14.80;;;;;;;28.60;50.50;99076.67;1778857;79;21057;-64
2021/07/21 11:42:32;;;;;;;16.42;14.83;;;;;;;28.56;50.26;99072.94;1786569;79;21600;-65
2021/07/21 11:45:09;;;;;;;11.93;10.82;;;;;;;28.53;50.22;99083.66;1782497;79;21088;-66
2021/07/21 11:47:50;;;;;;;9.25;8.20;;;;;;;28.49;50.32;99077.16;1773595;79;21030;-66
2021/07/21 11:50:20;;;;;;;9.10;6.85;;;;;;;28.48;50.23;99085.11;1786952;79;21250;-65
2021/07/21 11:52:55;;;;;;;10.32;9.23;;;;;;;28.48;50.02;99084.55;1767434;79;21069;-64
2021/07/21 11:55:23;;;;;;;8.15;7.35;;;;;;;28.51;49.80;99084.48;1772175;79;21113;-65